Lumberton, North Carolina
Current Conditions -  °F | °C
As of 2:54 AM on Friday 24 Oct 2014 (Local Time) from KLBT Reporting Station
Clear Clear  
Wind Chill: 44°   Ceiling: Unl
Heat Index: 44°   Visibility: 10mi
Dew Point: 42°   Wind: 0mph
Humidity: 93%   Direction: NA
Pressure: 30.01"   Gusts: NA
Location:  34.62°N, 79.01°W
Report Text: KLBT 240654Z AUTO 00000KT 10SM CLR 07/06 A3001 RMK AO2 SLP162 T00670056
Loading
Personal Weather Stations






























Interactive Weather Map
Tropical Storm Tracking
New forecast layout! Learn more

10-Day Weather Forecast

Advertisements
Track Severe Weather on mobile